sensor_id;sensor_type;location;lat;lon;timestamp;pressure;altitude;pressure_sealevel;temperature;humidity
65880;BME280;52661;51.364;6.054;2022-07-03T00:01:23;101431.44;;;20.45;65.73
65880;BME280;52661;51.364;6.054;2022-07-03T00:03:48;101434.63;;;20.44;65.73
65880;BME280;52661;51.364;6.054;2022-07-03T00:06:13;101426.19;;;20.22;67.02
65880;BME280;52661;51.364;6.054;2022-07-03T00:08:39;101431.16;;;20.27;67.02
65880;BME280;52661;51.364;6.054;2022-07-03T00:11:05;101427.91;;;20.45;66.31
65880;BME280;52661;51.364;6.054;2022-07-03T00:13:30;101426.63;;;20.21;66.59
65880;BME280;52661;51.364;6.054;2022-07-03T00:15:55;101428.91;;;20.09;66.45
65880;BME280;52661;51.364;6.054;2022-07-03T00:18:21;101422.53;;;20.12;66.51
65880;BME280;52661;51.364;6.054;2022-07-03T00:20:57;101410.34;;;19.97;67.16
65880;BME280;52661;51.364;6.054;2022-07-03T00:23:25;101408.31;;;20.14;66.25
65880;BME280;52661;51.364;6.054;2022-07-03T00:25:54;101403.81;;;19.91;67.46
65880;BME280;52661;51.364;6.054;2022-07-03T00:28:19;101401.41;;;19.93;67.96
65880;BME280;52661;51.364;6.054;2022-07-03T00:30:48;101401.28;;;19.84;68.61
65880;BME280;52661;51.364;6.054;2022-07-03T00:33:15;101398.03;;;19.73;69.29
65880;BME280;52661;51.364;6.054;2022-07-03T00:35:42;101400.34;;;19.75;69.02
65880;BME280;52661;51.364;6.054;2022-07-03T00:38:10;101404.41;;;19.99;67.99
65880;BME280;52661;51.364;6.054;2022-07-03T00:40:36;101402.06;;;19.97;67.45
65880;BME280;52661;51.364;6.054;2022-07-03T00:43:02;101409.25;;;19.95;67.29
65880;BME280;52661;51.364;6.054;2022-07-03T00:45:33;101411.38;;;19.75;68.25
65880;BME280;52661;51.364;6.054;2022-07-03T00:47:59;101412.66;;;19.70;68.68
65880;BME280;52661;51.364;6.054;2022-07-03T00:50:27;101402.44;;;19.71;69.28
65880;BME280;52661;51.364;6.054;2022-07-03T00:52:58;101402.91;;;19.53;69.74
65880;BME280;52661;51.364;6.054;2022-07-03T00:55:26;101412.53;;;19.45;69.79
65880;BME280;52661;51.364;6.054;2022-07-03T00:57:54;101401.94;;;19.59;69.45
65880;BME280;52661;51.364;6.054;2022-07-03T01:00:20;101401.06;;;19.62;69.25
65880;BME280;52661;51.364;6.054;2022-07-03T01:02:53;101396.63;;;19.81;68.56
65880;BME280;52661;51.364;6.054;2022-07-03T01:13:38;101399.66;;;19.42;69.85
65880;BME280;52661;51.364;6.054;2022-07-03T01:16:41;101396.63;;;19.52;69.39
65880;BME280;52661;51.364;6.054;2022-07-03T01:19:40;101389.22;;;19.49;69.24
65880;BME280;52661;51.364;6.054;2022-07-03T01:22:37;101385.44;;;19.27;70.22
65880;BME280;52661;51.364;6.054;2022-07-03T01:25:23;101398.84;;;19.25;70.40
65880;BME280;52661;51.364;6.054;2022-07-03T01:28:08;101393.28;;;19.12;71.14
65880;BME280;52661;51.364;6.054;2022-07-03T01:30:47;101384.66;;;19.10;71.17
65880;BME280;52661;51.364;6.054;2022-07-03T01:33:21;101382.34;;;19.25;70.83
65880;BME280;52661;51.364;6.054;2022-07-03T01:38:28;101382.50;;;19.50;68.68
65880;BME280;52661;51.364;6.054;2022-07-03T01:40:55;101387.69;;;19.48;68.38
65880;BME280;52661;51.364;6.054;2022-07-03T01:43:27;101387.81;;;19.57;68.24
65880;BME280;52661;51.364;6.054;2022-07-03T01:45:53;101388.78;;;19.35;68.88
65880;BME280;52661;51.364;6.054;2022-07-03T01:48:21;101395.34;;;19.08;68.43
65880;BME280;52661;51.364;6.054;2022-07-03T01:50:48;101385.88;;;18.93;67.95
65880;BME280;52661;51.364;6.054;2022-07-03T01:53:15;101389.06;;;18.92;66.86
65880;BME280;52661;51.364;6.054;2022-07-03T01:55:41;101388.28;;;19.07;66.74
65880;BME280;52661;51.364;6.054;2022-07-03T01:58:08;101387.75;;;19.29;66.56
65880;BME280;52661;51.364;6.054;2022-07-03T02:00:59;101385.88;;;19.26;65.94
65880;BME280;52661;51.364;6.054;2022-07-03T02:03:27;101389.13;;;19.37;65.73
65880;BME280;52661;51.364;6.054;2022-07-03T02:06:03;101388.97;;;19.44;66.61
65880;BME280;52661;51.364;6.054;2022-07-03T02:08:48;101390.31;;;19.36;67.70
65880;BME280;52661;51.364;6.054;2022-07-03T02:11:18;101384.38;;;19.37;67.86
65880;BME280;52661;51.364;6.054;2022-07-03T02:16:16;101386.56;;;19.13;69.01
65880;BME280;52661;51.364;6.054;2022-07-03T02:18:43;101383.03;;;18.97;69.33
65880;BME280;52661;51.364;6.054;2022-07-03T02:21:17;101376.25;;;19.01;67.78
65880;BME280;52661;51.364;6.054;2022-07-03T02:26:33;101374.34;;;18.82;67.90
65880;BME280;52661;51.364;6.054;2022-07-03T02:29:04;101389.38;;;18.78;68.22
65880;BME280;52661;51.364;6.054;2022-07-03T02:31:51;101400.16;;;18.13;71.19
65880;BME280;52661;51.364;6.054;2022-07-03T02:34:22;101398.84;;;18.01;71.80
65880;BME280;52661;51.364;6.054;2022-07-03T02:36:50;101403.41;;;17.88;72.30
65880;BME280;52661;51.364;6.054;2022-07-03T02:39:48;101397.78;;;17.76;72.56
65880;BME280;52661;51.364;6.054;2022-07-03T02:44:57;101404.47;;;17.94;71.73
65880;BME280;52661;51.364;6.054;2022-07-03T02:50:05;101403.69;;;18.13;70.50
65880;BME280;52661;51.364;6.054;2022-07-03T02:55:39;101405.47;;;18.04;70.69
65880;BME280;52661;51.364;6.054;2022-07-03T03:06:36;101412.94;;;18.23;69.16
65880;BME280;52661;51.364;6.054;2022-07-03T03:09:03;101419.13;;;18.07;69.50
65880;BME280;52661;51.364;6.054;2022-07-03T03:11:41;101417.03;;;18.15;69.17
65880;BME280;52661;51.364;6.054;2022-07-03T03:14:13;101414.06;;;18.06;69.69
65880;BME280;52661;51.364;6.054;2022-07-03T03:16:52;101404.84;;;17.96;69.84
65880;BME280;52661;51.364;6.054;2022-07-03T03:19:22;101415.25;;;17.85;70.19
65880;BME280;52661;51.364;6.054;2022-07-03T03:22:06;101417.22;;;17.85;70.41
65880;BME280;52661;51.364;6.054;2022-07-03T03:24:33;101416.09;;;17.82;70.77
65880;BME280;52661;51.364;6.054;2022-07-03T03:26:59;101419.97;;;17.85;70.58
65880;BME280;52661;51.364;6.054;2022-07-03T03:29:25;101423.88;;;17.64;71.59
65880;BME280;52661;51.364;6.054;2022-07-03T03:31:50;101424.13;;;17.93;70.58
65880;BME280;52661;51.364;6.054;2022-07-03T03:34:17;101416.66;;;17.93;70.11
65880;BME280;52661;51.364;6.054;2022-07-03T03:36:42;101414.41;;;17.88;70.52
65880;BME280;52661;51.364;6.054;2022-07-03T03:39:07;101423.00;;;17.90;70.50
65880;BME280;52661;51.364;6.054;2022-07-03T03:41:33;101429.25;;;17.91;70.47
65880;BME280;52661;51.364;6.054;2022-07-03T03:43:59;101425.63;;;17.97;70.17
65880;BME280;52661;51.364;6.054;2022-07-03T03:46:24;101428.00;;;17.95;70.07
65880;BME280;52661;51.364;6.054;2022-07-03T03:48:49;101433.16;;;17.93;70.17
65880;BME280;52661;51.364;6.054;2022-07-03T03:51:15;101422.34;;;17.83;70.22
65880;BME280;52661;51.364;6.054;2022-07-03T03:53:40;101427.78;;;17.86;70.16
65880;BME280;52661;51.364;6.054;2022-07-03T03:56:08;101429.44;;;17.80;70.47
65880;BME280;52661;51.364;6.054;2022-07-03T03:58:35;101429.31;;;17.87;70.19
65880;BME280;52661;51.364;6.054;2022-07-03T04:01:03;101426.63;;;17.84;70.28
65880;BME280;52661;51.364;6.054;2022-07-03T04:03:30;101433.72;;;18.04;69.83
65880;BME280;52661;51.364;6.054;2022-07-03T04:05:56;101429.97;;;17.95;69.90
65880;BME280;52661;51.364;6.054;2022-07-03T04:08:23;101438.63;;;17.93;69.68
65880;BME280;52661;51.364;6.054;2022-07-03T04:10:49;101437.56;;;17.87;70.31
65880;BME280;52661;51.364;6.054;2022-07-03T04:13:15;101441.16;;;17.84;70.25
65880;BME280;52661;51.364;6.054;2022-07-03T04:15:41;101437.66;;;18.03;69.74
65880;BME280;52661;51.364;6.054;2022-07-03T04:18:07;101433.41;;;17.79;70.24
65880;BME280;52661;51.364;6.054;2022-07-03T04:20:32;101439.38;;;17.74;70.56
65880;BME280;52661;51.364;6.054;2022-07-03T04:22:58;101440.50;;;17.77;70.62
65880;BME280;52661;51.364;6.054;2022-07-03T04:25:24;101448.72;;;17.77;70.71
65880;BME280;52661;51.364;6.054;2022-07-03T04:27:49;101438.97;;;17.76;70.57
65880;BME280;52661;51.364;6.054;2022-07-03T04:30:15;101439.13;;;17.88;69.97
65880;BME280;52661;51.364;6.054;2022-07-03T04:32:41;101442.16;;;17.94;70.14
65880;BME280;52661;51.364;6.054;2022-07-03T04:35:07;101443.13;;;17.84;70.09
65880;BME280;52661;51.364;6.054;2022-07-03T04:37:32;101451.22;;;17.91;69.98
65880;BME280;52661;51.364;6.054;2022-07-03T04:39:57;101456.56;;;17.98;69.64
65880;BME280;52661;51.364;6.054;2022-07-03T04:42:23;101467.63;;;17.94;69.59
65880;BME280;52661;51.364;6.054;2022-07-03T04:44:48;101464.00;;;18.01;69.17
65880;BME280;52661;51.364;6.054;2022-07-03T04:47:13;101464.88;;;17.94;69.60
65880;BME280;52661;51.364;6.054;2022-07-03T04:49:40;101459.44;;;18.14;68.98
65880;BME280;52661;51.364;6.054;2022-07-03T04:52:06;101469.56;;;17.97;68.98
65880;BME280;52661;51.364;6.054;2022-07-03T04:54:32;101468.97;;;17.86;69.57
65880;BME280;52661;51.364;6.054;2022-07-03T04:56:57;101464.94;;;17.71;69.71
65880;BME280;52661;51.364;6.054;2022-07-03T04:59:23;101461.06;;;17.68;70.64
65880;BME280;52661;51.364;6.054;2022-07-03T05:01:48;101467.56;;;17.78;69.78
65880;BME280;52661;51.364;6.054;2022-07-03T05:04:15;101459.91;;;17.89;69.54
65880;BME280;52661;51.364;6.054;2022-07-03T05:06:40;101463.69;;;17.95;69.49
65880;BME280;52661;51.364;6.054;2022-07-03T05:09:06;101474.84;;;18.08;69.35
65880;BME280;52661;51.364;6.054;2022-07-03T05:11:31;101478.00;;;18.06;69.75
65880;BME280;52661;51.364;6.054;2022-07-03T05:13:56;101473.28;;;18.07;70.22
65880;BME280;52661;51.364;6.054;2022-07-03T05:16:22;101471.84;;;18.22;69.47
65880;BME280;52661;51.364;6.054;2022-07-03T05:18:47;101474.16;;;18.24;69.31
65880;BME280;52661;51.364;6.054;2022-07-03T05:21:12;101472.69;;;18.19;69.47
65880;BME280;52661;51.364;6.054;2022-07-03T05:23:38;101477.09;;;17.93;70.24
65880;BME280;52661;51.364;6.054;2022-07-03T05:26:03;101479.13;;;18.09;69.85
65880;BME280;52661;51.364;6.054;2022-07-03T05:28:28;101480.63;;;18.13;69.47
65880;BME280;52661;51.364;6.054;2022-07-03T05:30:53;101477.97;;;18.30;68.84
65880;BME280;52661;51.364;6.054;2022-07-03T05:33:19;101480.34;;;18.28;68.84
65880;BME280;52661;51.364;6.054;2022-07-03T05:35:44;101477.19;;;18.29;69.00
65880;BME280;52661;51.364;6.054;2022-07-03T05:38:10;101476.19;;;18.39;68.55
65880;BME280;52661;51.364;6.054;2022-07-03T05:40:35;101471.97;;;18.35;68.44
65880;BME280;52661;51.364;6.054;2022-07-03T05:43:00;101475.09;;;18.37;68.07
65880;BME280;52661;51.364;6.054;2022-07-03T05:45:26;101473.31;;;18.27;68.52
65880;BME280;52661;51.364;6.054;2022-07-03T05:47:51;101476.81;;;18.27;68.37
65880;BME280;52661;51.364;6.054;2022-07-03T05:50:17;101479.50;;;18.31;68.54
65880;BME280;52661;51.364;6.054;2022-07-03T05:52:42;101475.63;;;18.28;69.11
65880;BME280;52661;51.364;6.054;2022-07-03T05:55:08;101483.47;;;18.30;68.01
65880;BME280;52661;51.364;6.054;2022-07-03T05:57:33;101481.56;;;18.46;67.65
65880;BME280;52661;51.364;6.054;2022-07-03T05:59:58;101474.38;;;18.52;67.20
65880;BME280;52661;51.364;6.054;2022-07-03T06:02:24;101470.94;;;18.48;66.43
65880;BME280;52661;51.364;6.054;2022-07-03T06:04:49;101485.31;;;18.56;66.12
65880;BME280;52661;51.364;6.054;2022-07-03T06:07:14;101484.22;;;18.50;67.30
65880;BME280;52661;51.364;6.054;2022-07-03T06:09:42;101492.63;;;18.43;66.86
65880;BME280;52661;51.364;6.054;2022-07-03T06:12:07;101494.78;;;18.55;67.55
65880;BME280;52661;51.364;6.054;2022-07-03T06:14:33;101492.13;;;18.67;67.24
65880;BME280;52661;51.364;6.054;2022-07-03T06:16:58;101494.41;;;18.73;67.13
65880;BME280;52661;51.364;6.054;2022-07-03T06:19:23;101493.63;;;18.33;66.57
65880;BME280;52661;51.364;6.054;2022-07-03T06:21:49;101503.19;;;18.25;66.98
65880;BME280;52661;51.364;6.054;2022-07-03T06:24:14;101491.31;;;18.51;66.83
65880;BME280;52661;51.364;6.054;2022-07-03T06:26:39;101495.66;;;18.68;66.38
65880;BME280;52661;51.364;6.054;2022-07-03T06:29:05;101488.91;;;18.73;67.54
65880;BME280;52661;51.364;6.054;2022-07-03T06:31:30;101494.00;;;18.54;67.57
65880;BME280;52661;51.364;6.054;2022-07-03T06:33:56;101503.28;;;18.60;67.96
65880;BME280;52661;51.364;6.054;2022-07-03T06:36:22;101506.50;;;18.36;67.83
65880;BME280;52661;51.364;6.054;2022-07-03T06:38:47;101506.38;;;18.43;68.22
65880;BME280;52661;51.364;6.054;2022-07-03T06:41:13;101513.66;;;18.53;67.59
65880;BME280;52661;51.364;6.054;2022-07-03T06:43:39;101524.09;;;18.61;67.02
65880;BME280;52661;51.364;6.054;2022-07-03T06:46:04;101520.25;;;18.75;66.23
65880;BME280;52661;51.364;6.054;2022-07-03T06:48:29;101525.28;;;18.80;66.08
65880;BME280;52661;51.364;6.054;2022-07-03T06:50:55;101521.31;;;18.81;66.54
65880;BME280;52661;51.364;6.054;2022-07-03T06:53:20;101526.69;;;18.68;66.04
65880;BME280;52661;51.364;6.054;2022-07-03T06:55:45;101518.84;;;18.67;67.11
65880;BME280;52661;51.364;6.054;2022-07-03T06:58:11;101513.50;;;18.80;66.98
65880;BME280;52661;51.364;6.054;2022-07-03T07:00:36;101517.56;;;18.91;66.19
65880;BME280;52661;51.364;6.054;2022-07-03T07:03:03;101516.97;;;19.00;66.02
65880;BME280;52661;51.364;6.054;2022-07-03T07:05:29;101522.41;;;19.03;65.96
65880;BME280;52661;51.364;6.054;2022-07-03T07:07:54;101513.38;;;19.03;65.88
65880;BME280;52661;51.364;6.054;2022-07-03T07:10:19;101522.22;;;18.94;65.96
65880;BME280;52661;51.364;6.054;2022-07-03T07:12:45;101516.41;;;19.08;66.39
65880;BME280;52661;51.364;6.054;2022-07-03T07:15:10;101510.91;;;19.08;66.34
65880;BME280;52661;51.364;6.054;2022-07-03T07:17:36;101516.56;;;19.17;66.04
65880;BME280;52661;51.364;6.054;2022-07-03T07:20:01;101517.03;;;19.32;65.86
65880;BME280;52661;51.364;6.054;2022-07-03T07:22:27;101518.16;;;19.35;65.39
65880;BME280;52661;51.364;6.054;2022-07-03T07:24:52;101523.88;;;19.44;65.65
65880;BME280;52661;51.364;6.054;2022-07-03T07:27:18;101516.31;;;19.48;65.22
65880;BME280;52661;51.364;6.054;2022-07-03T07:29:43;101523.09;;;19.59;65.24
65880;BME280;52661;51.364;6.054;2022-07-03T07:32:08;101518.13;;;19.71;65.09
65880;BME280;52661;51.364;6.054;2022-07-03T07:34:34;101527.41;;;19.77;64.79
65880;BME280;52661;51.364;6.054;2022-07-03T07:36:59;101532.91;;;19.77;64.81
65880;BME280;52661;51.364;6.054;2022-07-03T07:39:24;101532.03;;;19.80;64.46
65880;BME280;52661;51.364;6.054;2022-07-03T07:41:50;101529.72;;;19.78;62.83
65880;BME280;52661;51.364;6.054;2022-07-03T07:44:15;101540.41;;;19.76;62.44
65880;BME280;52661;51.364;6.054;2022-07-03T07:46:40;101531.53;;;19.85;63.03
65880;BME280;52661;51.364;6.054;2022-07-03T07:49:06;101541.94;;;19.77;62.88
65880;BME280;52661;51.364;6.054;2022-07-03T07:51:31;101532.41;;;19.82;63.52
65880;BME280;52661;51.364;6.054;2022-07-03T07:53:56;101530.34;;;19.86;62.59
65880;BME280;52661;51.364;6.054;2022-07-03T07:56:24;101537.09;;;19.97;63.27
65880;BME280;52661;51.364;6.054;2022-07-03T07:58:50;101536.50;;;20.06;63.89
65880;BME280;52661;51.364;6.054;2022-07-03T08:01:17;101534.50;;;20.06;63.25
65880;BME280;52661;51.364;6.054;2022-07-03T08:04:01;101537.28;;;20.06;61.20
65880;BME280;52661;51.364;6.054;2022-07-03T08:06:44;101541.56;;;20.07;61.75
65880;BME280;52661;51.364;6.054;2022-07-03T08:09:13;101534.13;;;20.21;61.51
65880;BME280;52661;51.364;6.054;2022-07-03T08:11:38;101541.03;;;20.29;62.05
65880;BME280;52661;51.364;6.054;2022-07-03T08:14:04;101533.69;;;20.38;62.32
65880;BME280;52661;51.364;6.054;2022-07-03T08:16:30;101547.34;;;20.29;60.67
65880;BME280;52661;51.364;6.054;2022-07-03T08:18:56;101539.28;;;20.35;58.94
65880;BME280;52661;51.364;6.054;2022-07-03T08:21:21;101536.22;;;20.33;58.15
65880;BME280;52661;51.364;6.054;2022-07-03T08:23:47;101535.13;;;20.43;57.42
65880;BME280;52661;51.364;6.054;2022-07-03T08:26:12;101539.41;;;20.44;58.05
65880;BME280;52661;51.364;6.054;2022-07-03T08:28:37;101534.63;;;20.60;57.68
65880;BME280;52661;51.364;6.054;2022-07-03T08:31:03;101536.66;;;20.73;56.38
65880;BME280;52661;51.364;6.054;2022-07-03T08:33:28;101536.75;;;20.69;56.81
65880;BME280;52661;51.364;6.054;2022-07-03T08:35:53;101533.34;;;20.78;57.42
65880;BME280;52661;51.364;6.054;2022-07-03T08:38:18;101532.34;;;20.72;58.29
65880;BME280;52661;51.364;6.054;2022-07-03T08:40:44;101528.19;;;20.80;59.21
65880;BME280;52661;51.364;6.054;2022-07-03T08:43:10;101541.63;;;20.78;57.98
65880;BME280;52661;51.364;6.054;2022-07-03T08:45:37;101540.06;;;20.77;56.76
65880;BME280;52661;51.364;6.054;2022-07-03T08:48:04;101533.38;;;20.90;56.09
65880;BME280;52661;51.364;6.054;2022-07-03T08:50:32;101530.19;;;21.04;55.17
65880;BME280;52661;51.364;6.054;2022-07-03T08:52:59;101534.25;;;21.00;54.04
65880;BME280;52661;51.364;6.054;2022-07-03T08:55:24;101525.69;;;21.10;53.78
65880;BME280;52661;51.364;6.054;2022-07-03T08:57:50;101519.94;;;21.05;50.15
65880;BME280;52661;51.364;6.054;2022-07-03T09:00:17;101527.34;;;21.21;52.49
65880;BME280;52661;51.364;6.054;2022-07-03T09:02:43;101532.19;;;21.42;52.63
65880;BME280;52661;51.364;6.054;2022-07-03T09:05:10;101528.56;;;21.32;52.04
65880;BME280;52661;51.364;6.054;2022-07-03T09:07:37;101527.34;;;21.21;51.95
65880;BME280;52661;51.364;6.054;2022-07-03T09:10:05;101523.16;;;21.29;52.74
65880;BME280;52661;51.364;6.054;2022-07-03T09:12:31;101522.59;;;21.34;52.65
65880;BME280;52661;51.364;6.054;2022-07-03T09:14:58;101526.22;;;21.43;53.79
65880;BME280;52661;51.364;6.054;2022-07-03T09:17:23;101519.38;;;21.48;53.40
65880;BME280;52661;51.364;6.054;2022-07-03T09:19:49;101528.97;;;21.56;53.25
65880;BME280;52661;51.364;6.054;2022-07-03T09:22:21;101520.59;;;21.59;52.93
65880;BME280;52661;51.364;6.054;2022-07-03T09:24:54;101523.00;;;21.57;52.79
65880;BME280;52661;51.364;6.054;2022-07-03T09:27:27;101522.47;;;21.63;52.24
65880;BME280;52661;51.364;6.054;2022-07-03T09:30:05;101531.50;;;21.76;52.42
65880;BME280;52661;51.364;6.054;2022-07-03T09:37:41;101531.38;;;21.79;50.21
65880;BME280;52661;51.364;6.054;2022-07-03T09:40:12;101534.25;;;21.76;50.55
65880;BME280;52661;51.364;6.054;2022-07-03T09:42:37;101533.69;;;21.93;52.03
65880;BME280;52661;51.364;6.054;2022-07-03T09:45:03;101529.72;;;21.94;51.39
65880;BME280;52661;51.364;6.054;2022-07-03T09:47:28;101528.56;;;22.04;51.68
65880;BME280;52661;51.364;6.054;2022-07-03T09:49:55;101530.66;;;22.13;52.36
65880;BME280;52661;51.364;6.054;2022-07-03T09:54:53;101538.22;;;22.22;52.16
65880;BME280;52661;51.364;6.054;2022-07-03T09:57:19;101537.13;;;22.19;51.53
65880;BME280;52661;51.364;6.054;2022-07-03T09:59:45;101532.94;;;22.15;51.16
65880;BME280;52661;51.364;6.054;2022-07-03T10:02:10;101524.03;;;22.32;51.30
65880;BME280;52661;51.364;6.054;2022-07-03T10:04:35;101531.88;;;22.34;51.02
65880;BME280;52661;51.364;6.054;2022-07-03T10:07:01;101531.19;;;22.42;51.62
65880;BME280;52661;51.364;6.054;2022-07-03T10:09:34;101535.47;;;22.43;49.98
65880;BME280;52661;51.364;6.054;2022-07-03T10:12:02;101527.81;;;22.47;48.98
65880;BME280;52661;51.364;6.054;2022-07-03T10:14:30;101529.75;;;22.38;47.82
65880;BME280;52661;51.364;6.054;2022-07-03T10:16:56;101531.31;;;22.39;48.99
65880;BME280;52661;51.364;6.054;2022-07-03T10:19:28;101531.94;;;22.43;47.14
65880;BME280;52661;51.364;6.054;2022-07-03T10:21:57;101537.53;;;22.52;48.31
65880;BME280;52661;51.364;6.054;2022-07-03T10:24:27;101535.84;;;22.54;46.67
65880;BME280;52661;51.364;6.054;2022-07-03T10:26:54;101533.94;;;22.64;48.47
65880;BME280;52661;51.364;6.054;2022-07-03T10:29:22;101535.94;;;22.85;47.89
65880;BME280;52661;51.364;6.054;2022-07-03T10:31:47;101535.75;;;22.80;46.70
65880;BME280;52661;51.364;6.054;2022-07-03T10:34:24;101534.53;;;22.81;48.02
65880;BME280;52661;51.364;6.054;2022-07-03T10:37:10;101536.59;;;22.89;47.09
65880;BME280;52661;51.364;6.054;2022-07-03T10:39:58;101540.94;;;22.99;46.42
65880;BME280;52661;51.364;6.054;2022-07-03T10:42:48;101545.34;;;23.19;46.86
65880;BME280;52661;51.364;6.054;2022-07-03T10:45:34;101542.44;;;23.31;45.94
65880;BME280;52661;51.364;6.054;2022-07-03T10:47:59;101540.09;;;23.21;46.55
65880;BME280;52661;51.364;6.054;2022-07-03T10:50:24;101548.75;;;23.01;46.43
65880;BME280;52661;51.364;6.054;2022-07-03T10:52:50;101545.69;;;22.99;46.06
65880;BME280;52661;51.364;6.054;2022-07-03T10:55:16;101542.44;;;23.31;46.96
65880;BME280;52661;51.364;6.054;2022-07-03T10:58:05;101537.00;;;23.49;46.47
65880;BME280;52661;51.364;6.054;2022-07-03T11:00:28;101544.72;;;23.55;46.13
65880;BME280;52661;51.364;6.054;2022-07-03T11:02:53;101534.84;;;23.53;46.09
65880;BME280;52661;51.364;6.054;2022-07-03T11:05:24;101541.63;;;23.52;46.57
65880;BME280;52661;51.364;6.054;2022-07-03T11:13:03;101535.06;;;23.28;47.66
65880;BME280;52661;51.364;6.054;2022-07-03T11:15:51;101536.28;;;23.27;48.21
65880;BME280;52661;51.364;6.054;2022-07-03T11:18:18;101528.09;;;23.55;47.14
65880;BME280;52661;51.364;6.054;2022-07-03T11:28:06;101534.91;;;23.72;47.66
65880;BME280;52661;51.364;6.054;2022-07-03T11:30:32;101530.53;;;23.43;47.83
65880;BME280;52661;51.364;6.054;2022-07-03T11:32:58;101534.72;;;23.57;47.96
65880;BME280;52661;51.364;6.054;2022-07-03T11:38:14;101532.56;;;23.70;47.25
65880;BME280;52661;51.364;6.054;2022-07-03T11:40:41;101533.97;;;23.84;46.98
65880;BME280;52661;51.364;6.054;2022-07-03T11:43:07;101541.47;;;23.47;47.46
65880;BME280;52661;51.364;6.054;2022-07-03T11:45:33;101533.06;;;23.29;48.82
65880;BME280;52661;51.364;6.054;2022-07-03T11:47:58;101538.47;;;23.32;50.62
65880;BME280;52661;51.364;6.054;2022-07-03T11:50:40;101536.13;;;23.22;50.55
65880;BME280;52661;51.364;6.054;2022-07-03T11:53:21;101537.41;;;23.39;50.39
65880;BME280;52661;51.364;6.054;2022-07-03T11:56:10;101528.88;;;23.73;50.53
65880;BME280;52661;51.364;6.054;2022-07-03T12:03:50;101524.84;;;23.56;49.65
65880;BME280;52661;51.364;6.054;2022-07-03T12:06:16;101528.84;;;23.55;49.96
65880;BME280;52661;51.364;6.054;2022-07-03T12:08:42;101526.44;;;23.84;47.97
65880;BME280;52661;51.364;6.054;2022-07-03T12:11:13;101522.31;;;24.25;47.38
65880;BME280;52661;51.364;6.054;2022-07-03T12:13:38;101518.91;;;24.48;46.26
65880;BME280;52661;51.364;6.054;2022-07-03T12:18:53;101522.44;;;23.76;46.97
65880;BME280;52661;51.364;6.054;2022-07-03T12:21:20;101526.31;;;23.97;45.98
65880;BME280;52661;51.364;6.054;2022-07-03T12:23:53;101516.13;;;23.94;46.68
65880;BME280;52661;51.364;6.054;2022-07-03T12:26:29;101529.72;;;24.28;46.04
65880;BME280;52661;51.364;6.054;2022-07-03T12:28:56;101522.47;;;24.22;46.39
65880;BME280;52661;51.364;6.054;2022-07-03T12:31:22;101528.63;;;24.35;46.28
65880;BME280;52661;51.364;6.054;2022-07-03T12:33:47;101521.69;;;24.48;45.53
65880;BME280;52661;51.364;6.054;2022-07-03T12:36:13;101519.44;;;24.98;47.32
65880;BME280;52661;51.364;6.054;2022-07-03T12:38:38;101521.94;;;24.69;46.21
65880;BME280;52661;51.364;6.054;2022-07-03T12:41:06;101525.28;;;24.82;44.57
65880;BME280;52661;51.364;6.054;2022-07-03T12:43:42;101506.59;;;25.01;45.13
65880;BME280;52661;51.364;6.054;2022-07-03T12:48:57;101506.72;;;24.46;45.05
65880;BME280;52661;51.364;6.054;2022-07-03T12:51:42;101508.28;;;24.11;46.57
65880;BME280;52661;51.364;6.054;2022-07-03T12:54:11;101516.59;;;24.47;46.54
65880;BME280;52661;51.364;6.054;2022-07-03T12:56:36;101504.16;;;24.93;45.83
65880;BME280;52661;51.364;6.054;2022-07-03T12:59:02;101512.13;;;25.10;46.30
65880;BME280;52661;51.364;6.054;2022-07-03T13:02:03;101516.00;;;24.34;44.76
65880;BME280;52661;51.364;6.054;2022-07-03T13:04:34;101510.72;;;23.99;45.59
65880;BME280;52661;51.364;6.054;2022-07-03T13:07:07;101510.41;;;23.88;46.52
65880;BME280;52661;51.364;6.054;2022-07-03T13:09:34;101510.31;;;24.37;45.67
65880;BME280;52661;51.364;6.054;2022-07-03T13:12:00;101499.81;;;24.41;43.69
65880;BME280;52661;51.364;6.054;2022-07-03T13:14:25;101498.91;;;24.26;44.84
65880;BME280;52661;51.364;6.054;2022-07-03T13:16:56;101512.88;;;23.95;45.43
65880;BME280;52661;51.364;6.054;2022-07-03T13:19:26;101499.66;;;24.18;45.17
65880;BME280;52661;51.364;6.054;2022-07-03T13:21:54;101496.09;;;23.99;46.14
65880;BME280;52661;51.364;6.054;2022-07-03T13:24:21;101503.81;;;23.86;46.71
65880;BME280;52661;51.364;6.054;2022-07-03T13:26:47;101510.78;;;24.27;45.77
65880;BME280;52661;51.364;6.054;2022-07-03T13:29:13;101505.09;;;24.90;43.50
65880;BME280;52661;51.364;6.054;2022-07-03T13:31:39;101506.97;;;24.75;44.57
65880;BME280;52661;51.364;6.054;2022-07-03T13:34:05;101509.84;;;24.21;45.54
65880;BME280;52661;51.364;6.054;2022-07-03T13:36:31;101521.81;;;23.99;46.31
65880;BME280;52661;51.364;6.054;2022-07-03T13:38:57;101510.75;;;24.18;46.01
65880;BME280;52661;51.364;6.054;2022-07-03T13:41:23;101508.34;;;24.89;45.59
65880;BME280;52661;51.364;6.054;2022-07-03T13:43:50;101511.72;;;25.26;44.61
65880;BME280;52661;51.364;6.054;2022-07-03T13:46:16;101500.66;;;25.73;44.09
65880;BME280;52661;51.364;6.054;2022-07-03T13:48:42;101500.84;;;26.08;44.67
65880;BME280;52661;51.364;6.054;2022-07-03T13:51:07;101507.78;;;26.13;43.86
65880;BME280;52661;51.364;6.054;2022-07-03T13:53:33;101509.03;;;26.12;42.72
65880;BME280;52661;51.364;6.054;2022-07-03T13:55:58;101519.22;;;26.15;41.72
65880;BME280;52661;51.364;6.054;2022-07-03T13:58:25;101511.31;;;26.13;42.17
65880;BME280;52661;51.364;6.054;2022-07-03T14:00:51;101515.97;;;25.92;41.92
65880;BME280;52661;51.364;6.054;2022-07-03T14:03:16;101513.03;;;25.72;42.67